sensor_id;sensor_type;location;lat;lon;timestamp;temperature;humidity
23827;DHT22;12094;50.822;4.376;2023-03-24T00:01:56;12.40;99.90
23827;DHT22;12094;50.822;4.376;2023-03-24T00:04:25;12.40;99.90
23827;DHT22;12094;50.822;4.376;2023-03-24T00:06:53;12.40;99.90
23827;DHT22;12094;50.822;4.376;2023-03-24T00:09:20;12.40;99.90
23827;DHT22;12094;50.822;4.376;2023-03-24T00:11:51;12.40;99.90
23827;DHT22;12094;50.822;4.376;2023-03-24T00:14:18;12.40;99.90
23827;DHT22;12094;50.822;4.376;2023-03-24T00:16:45;12.40;99.90
23827;DHT22;12094;50.822;4.376;2023-03-24T00:19:13;12.40;99.90
23827;DHT22;12094;50.822;4.376;2023-03-24T00:21:42;12.50;99.90
23827;DHT22;12094;50.822;4.376;2023-03-24T00:24:10;12.50;99.90
23827;DHT22;12094;50.822;4.376;2023-03-24T00:26:39;12.60;99.90
23827;DHT22;12094;50.822;4.376;2023-03-24T00:29:08;12.70;99.90
23827;DHT22;12094;50.822;4.376;2023-03-24T00:31:36;12.60;99.90
23827;DHT22;12094;50.822;4.376;2023-03-24T00:34:07;12.70;99.90
23827;DHT22;12094;50.822;4.376;2023-03-24T00:36:38;12.70;99.90
23827;DHT22;12094;50.822;4.376;2023-03-24T00:39:06;12.70;99.90
23827;DHT22;12094;50.822;4.376;2023-03-24T00:41:33;12.70;99.90
23827;DHT22;12094;50.822;4.376;2023-03-24T00:44:01;12.70;99.90
23827;DHT22;12094;50.822;4.376;2023-03-24T00:46:32;12.70;99.90
23827;DHT22;12094;50.822;4.376;2023-03-24T00:49:05;12.70;99.90
23827;DHT22;12094;50.822;4.376;2023-03-24T00:51:37;12.70;99.90
23827;DHT22;12094;50.822;4.376;2023-03-24T00:54:06;12.70;99.90
23827;DHT22;12094;50.822;4.376;2023-03-24T00:56:39;12.70;99.90
23827;DHT22;12094;50.822;4.376;2023-03-24T00:59:09;12.70;99.90
23827;DHT22;12094;50.822;4.376;2023-03-24T01:01:39;12.70;99.90
23827;DHT22;12094;50.822;4.376;2023-03-24T01:04:08;12.70;99.90
23827;DHT22;12094;50.822;4.376;2023-03-24T01:06:36;12.70;99.90
23827;DHT22;12094;50.822;4.376;2023-03-24T01:09:05;12.80;99.90
23827;DHT22;12094;50.822;4.376;2023-03-24T01:11:36;12.80;99.90
23827;DHT22;12094;50.822;4.376;2023-03-24T01:14:04;12.90;99.90
23827;DHT22;12094;50.822;4.376;2023-03-24T01:16:32;13.00;99.90
23827;DHT22;12094;50.822;4.376;2023-03-24T01:19:00;13.00;99.90
23827;DHT22;12094;50.822;4.376;2023-03-24T01:21:27;13.10;99.90
23827;DHT22;12094;50.822;4.376;2023-03-24T01:23:57;13.10;99.90
23827;DHT22;12094;50.822;4.376;2023-03-24T01:26:25;13.20;99.90
23827;DHT22;12094;50.822;4.376;2023-03-24T01:28:52;13.20;99.90
23827;DHT22;12094;50.822;4.376;2023-03-24T01:31:21;13.20;99.90
23827;DHT22;12094;50.822;4.376;2023-03-24T01:33:48;13.20;99.90
23827;DHT22;12094;50.822;4.376;2023-03-24T01:36:15;13.30;99.90
23827;DHT22;12094;50.822;4.376;2023-03-24T01:38:42;13.30;99.90
23827;DHT22;12094;50.822;4.376;2023-03-24T01:41:11;13.30;99.90
23827;DHT22;12094;50.822;4.376;2023-03-24T01:43:40;13.40;99.90
23827;DHT22;12094;50.822;4.376;2023-03-24T01:46:12;13.30;99.90
23827;DHT22;12094;50.822;4.376;2023-03-24T01:48:53;13.30;99.90
23827;DHT22;12094;50.822;4.376;2023-03-24T01:51:46;13.30;99.90
23827;DHT22;12094;50.822;4.376;2023-03-24T01:54:22;13.30;99.90
23827;DHT22;12094;50.822;4.376;2023-03-24T01:57:06;13.30;99.90
23827;DHT22;12094;50.822;4.376;2023-03-24T01:59:39;13.30;99.90
23827;DHT22;12094;50.822;4.376;2023-03-24T02:02:12;13.40;99.90
23827;DHT22;12094;50.822;4.376;2023-03-24T02:04:58;13.40;99.90
23827;DHT22;12094;50.822;4.376;2023-03-24T02:07:57;13.30;99.90
23827;DHT22;12094;50.822;4.376;2023-03-24T02:10:25;13.40;99.90
23827;DHT22;12094;50.822;4.376;2023-03-24T02:12:56;13.40;99.90
23827;DHT22;12094;50.822;4.376;2023-03-24T02:15:25;13.50;99.90
23827;DHT22;12094;50.822;4.376;2023-03-24T02:32:33;13.00;99.90
23827;DHT22;12094;50.822;4.376;2023-03-24T02:38:19;12.80;99.90
23827;DHT22;12094;50.822;4.376;2023-03-24T02:41:06;12.70;99.90
23827;DHT22;12094;50.822;4.376;2023-03-24T02:43:46;12.60;99.90
23827;DHT22;12094;50.822;4.376;2023-03-24T02:52:22;12.30;99.90
23827;DHT22;12094;50.822;4.376;2023-03-24T02:55:02;12.30;99.90
23827;DHT22;12094;50.822;4.376;2023-03-24T02:57:33;12.40;99.90
23827;DHT22;12094;50.822;4.376;2023-03-24T03:00:30;12.30;99.90
23827;DHT22;12094;50.822;4.376;2023-03-24T03:06:33;12.10;99.90
23827;DHT22;12094;50.822;4.376;2023-03-24T03:08:45;12.00;99.90
23827;DHT22;12094;50.822;4.376;2023-03-24T03:11:15;11.80;99.90
23827;DHT22;12094;50.822;4.376;2023-03-24T03:13:52;11.80;99.90
23827;DHT22;12094;50.822;4.376;2023-03-24T03:16:30;11.80;99.90
23827;DHT22;12094;50.822;4.376;2023-03-24T03:19:14;11.90;99.90
23827;DHT22;12094;50.822;4.376;2023-03-24T03:21:47;12.00;99.90
23827;DHT22;12094;50.822;4.376;2023-03-24T03:24:22;12.00;99.90
23827;DHT22;12094;50.822;4.376;2023-03-24T03:27:01;12.00;99.90
23827;DHT22;12094;50.822;4.376;2023-03-24T03:29:35;11.80;99.90
23827;DHT22;12094;50.822;4.376;2023-03-24T03:32:07;11.70;99.90
23827;DHT22;12094;50.822;4.376;2023-03-24T03:40:49;11.60;99.90
23827;DHT22;12094;50.822;4.376;2023-03-24T03:43:21;11.60;99.90
23827;DHT22;12094;50.822;4.376;2023-03-24T03:45:48;11.50;99.90
23827;DHT22;12094;50.822;4.376;2023-03-24T03:48:24;11.60;99.90
23827;DHT22;12094;50.822;4.376;2023-03-24T03:50:55;11.60;99.90
23827;DHT22;12094;50.822;4.376;2023-03-24T03:53:47;11.50;99.90
23827;DHT22;12094;50.822;4.376;2023-03-24T03:56:27;11.40;99.90
23827;DHT22;12094;50.822;4.376;2023-03-24T03:59:28;11.40;99.90
23827;DHT22;12094;50.822;4.376;2023-03-24T04:11:20;11.30;99.90
23827;DHT22;12094;50.822;4.376;2023-03-24T04:20:05;11.10;99.90
23827;DHT22;12094;50.822;4.376;2023-03-24T04:23:01;11.00;99.90
23827;DHT22;12094;50.822;4.376;2023-03-24T04:31:14;11.00;99.90
23827;DHT22;12094;50.822;4.376;2023-03-24T04:34:01;11.00;99.90
23827;DHT22;12094;50.822;4.376;2023-03-24T04:36:40;11.10;99.90
23827;DHT22;12094;50.822;4.376;2023-03-24T04:39:26;11.10;99.90
23827;DHT22;12094;50.822;4.376;2023-03-24T04:42:07;11.10;99.90
23827;DHT22;12094;50.822;4.376;2023-03-24T04:44:36;11.10;99.90
23827;DHT22;12094;50.822;4.376;2023-03-24T04:47:29;11.10;99.90
23827;DHT22;12094;50.822;4.376;2023-03-24T04:50:29;11.00;99.90
23827;DHT22;12094;50.822;4.376;2023-03-24T04:52:59;11.00;99.90
23827;DHT22;12094;50.822;4.376;2023-03-24T04:58:03;11.10;99.90
23827;DHT22;12094;50.822;4.376;2023-03-24T05:00:37;11.10;99.90
23827;DHT22;12094;50.822;4.376;2023-03-24T05:03:04;11.00;99.90
23827;DHT22;12094;50.822;4.376;2023-03-24T05:05:31;10.90;99.90
23827;DHT22;12094;50.822;4.376;2023-03-24T05:07:58;10.80;99.90
23827;DHT22;12094;50.822;4.376;2023-03-24T05:10:27;10.70;99.90
23827;DHT22;12094;50.822;4.376;2023-03-24T05:12:55;10.70;99.90
23827;DHT22;12094;50.822;4.376;2023-03-24T05:15:25;10.70;99.90
23827;DHT22;12094;50.822;4.376;2023-03-24T05:18:09;10.70;99.90
23827;DHT22;12094;50.822;4.376;2023-03-24T05:20:38;10.70;99.90
23827;DHT22;12094;50.822;4.376;2023-03-24T05:23:13;10.80;99.90
23827;DHT22;12094;50.822;4.376;2023-03-24T05:25:42;10.70;99.90
23827;DHT22;12094;50.822;4.376;2023-03-24T05:28:19;10.70;99.90
23827;DHT22;12094;50.822;4.376;2023-03-24T05:30:49;10.70;99.90
23827;DHT22;12094;50.822;4.376;2023-03-24T05:33:38;10.80;99.90
23827;DHT22;12094;50.822;4.376;2023-03-24T05:36:11;10.70;99.90
23827;DHT22;12094;50.822;4.376;2023-03-24T05:38:41;10.60;99.90
23827;DHT22;12094;50.822;4.376;2023-03-24T05:41:08;10.50;99.90
23827;DHT22;12094;50.822;4.376;2023-03-24T05:43:40;10.30;99.90
23827;DHT22;12094;50.822;4.376;2023-03-24T05:46:14;10.20;99.90
23827;DHT22;12094;50.822;4.376;2023-03-24T05:48:44;10.20;99.90
23827;DHT22;12094;50.822;4.376;2023-03-24T05:51:17;10.20;99.90
23827;DHT22;12094;50.822;4.376;2023-03-24T05:53:48;10.10;99.90
23827;DHT22;12094;50.822;4.376;2023-03-24T05:56:23;10.10;99.90
23827;DHT22;12094;50.822;4.376;2023-03-24T05:59:21;10.10;99.90
23827;DHT22;12094;50.822;4.376;2023-03-24T06:01:51;10.00;99.90
23827;DHT22;12094;50.822;4.376;2023-03-24T06:04:28;10.00;99.90
23827;DHT22;12094;50.822;4.376;2023-03-24T06:07:07;10.10;99.90
23827;DHT22;12094;50.822;4.376;2023-03-24T06:09:38;10.00;99.90
23827;DHT22;12094;50.822;4.376;2023-03-24T06:12:12;10.00;99.90
23827;DHT22;12094;50.822;4.376;2023-03-24T06:14:51;10.00;99.90
23827;DHT22;12094;50.822;4.376;2023-03-24T06:17:20;10.10;99.90
23827;DHT22;12094;50.822;4.376;2023-03-24T06:19:50;10.20;99.90
23827;DHT22;12094;50.822;4.376;2023-03-24T06:22:39;10.20;99.90
23827;DHT22;12094;50.822;4.376;2023-03-24T06:25:12;10.20;99.90
23827;DHT22;12094;50.822;4.376;2023-03-24T06:27:46;10.30;99.90
23827;DHT22;12094;50.822;4.376;2023-03-24T06:30:20;10.30;99.90
23827;DHT22;12094;50.822;4.376;2023-03-24T06:32:51;10.30;99.90
23827;DHT22;12094;50.822;4.376;2023-03-24T06:35:24;10.40;99.90
23827;DHT22;12094;50.822;4.376;2023-03-24T06:38:06;10.30;99.90
23827;DHT22;12094;50.822;4.376;2023-03-24T06:40:35;10.30;99.90
23827;DHT22;12094;50.822;4.376;2023-03-24T06:43:04;10.30;99.90
23827;DHT22;12094;50.822;4.376;2023-03-24T06:45:40;10.30;99.90
23827;DHT22;12094;50.822;4.376;2023-03-24T06:48:13;10.20;99.90
23827;DHT22;12094;50.822;4.376;2023-03-24T06:51:01;10.30;99.90
23827;DHT22;12094;50.822;4.376;2023-03-24T06:53:35;10.30;99.90
23827;DHT22;12094;50.822;4.376;2023-03-24T06:56:04;10.30;99.90
23827;DHT22;12094;50.822;4.376;2023-03-24T06:58:43;10.30;99.90
23827;DHT22;12094;50.822;4.376;2023-03-24T07:01:19;10.30;99.90
23827;DHT22;12094;50.822;4.376;2023-03-24T07:04:17;10.40;99.90
23827;DHT22;12094;50.822;4.376;2023-03-24T07:06:59;10.50;99.90
23827;DHT22;12094;50.822;4.376;2023-03-24T07:09:58;10.60;99.90
23827;DHT22;12094;50.822;4.376;2023-03-24T07:12:25;10.60;99.90
23827;DHT22;12094;50.822;4.376;2023-03-24T07:14:53;10.50;99.90
23827;DHT22;12094;50.822;4.376;2023-03-24T07:17:42;10.60;99.90
23827;DHT22;12094;50.822;4.376;2023-03-24T07:20:18;10.60;99.90
23827;DHT22;12094;50.822;4.376;2023-03-24T07:22:55;10.50;99.90
23827;DHT22;12094;50.822;4.376;2023-03-24T07:25:58;10.50;99.90
23827;DHT22;12094;50.822;4.376;2023-03-24T07:28:47;10.50;99.90
23827;DHT22;12094;50.822;4.376;2023-03-24T07:31:38;10.60;99.90
23827;DHT22;12094;50.822;4.376;2023-03-24T07:34:17;10.70;99.90
23827;DHT22;12094;50.822;4.376;2023-03-24T07:36:48;10.70;99.90
23827;DHT22;12094;50.822;4.376;2023-03-24T07:39:18;10.80;99.90
23827;DHT22;12094;50.822;4.376;2023-03-24T07:42:02;10.90;99.90
23827;DHT22;12094;50.822;4.376;2023-03-24T07:44:59;11.00;99.90
23827;DHT22;12094;50.822;4.376;2023-03-24T07:47:26;11.10;99.90
23827;DHT22;12094;50.822;4.376;2023-03-24T07:49:59;11.20;99.90
23827;DHT22;12094;50.822;4.376;2023-03-24T07:52:30;11.30;99.90
23827;DHT22;12094;50.822;4.376;2023-03-24T07:54:59;11.30;99.90
23827;DHT22;12094;50.822;4.376;2023-03-24T07:57:50;11.10;99.90
23827;DHT22;12094;50.822;4.376;2023-03-24T08:00:19;11.00;99.90
23827;DHT22;12094;50.822;4.376;2023-03-24T08:03:11;11.10;99.90
23827;DHT22;12094;50.822;4.376;2023-03-24T08:05:46;11.10;99.90
23827;DHT22;12094;50.822;4.376;2023-03-24T08:08:38;11.10;99.90
23827;DHT22;12094;50.822;4.376;2023-03-24T08:11:20;11.20;99.90
23827;DHT22;12094;50.822;4.376;2023-03-24T08:13:49;11.40;99.90
23827;DHT22;12094;50.822;4.376;2023-03-24T08:16:35;11.30;99.90
23827;DHT22;12094;50.822;4.376;2023-03-24T08:19:12;11.40;99.90
23827;DHT22;12094;50.822;4.376;2023-03-24T08:21:40;11.30;99.90
23827;DHT22;12094;50.822;4.376;2023-03-24T08:24:12;11.50;99.90
23827;DHT22;12094;50.822;4.376;2023-03-24T08:26:40;11.50;99.90
23827;DHT22;12094;50.822;4.376;2023-03-24T08:29:17;11.60;99.90
23827;DHT22;12094;50.822;4.376;2023-03-24T08:31:56;11.70;99.90
23827;DHT22;12094;50.822;4.376;2023-03-24T08:34:26;11.70;99.90
23827;DHT22;12094;50.822;4.376;2023-03-24T08:36:58;11.70;99.90
23827;DHT22;12094;50.822;4.376;2023-03-24T08:39:24;11.80;99.90
23827;DHT22;12094;50.822;4.376;2023-03-24T08:41:52;11.90;99.90
23827;DHT22;12094;50.822;4.376;2023-03-24T08:44:20;11.90;99.90
23827;DHT22;12094;50.822;4.376;2023-03-24T08:46:49;11.90;99.90
23827;DHT22;12094;50.822;4.376;2023-03-24T08:49:19;12.00;99.90
23827;DHT22;12094;50.822;4.376;2023-03-24T08:51:47;12.10;99.90
23827;DHT22;12094;50.822;4.376;2023-03-24T08:54:18;12.00;99.90
23827;DHT22;12094;50.822;4.376;2023-03-24T08:57:30;12.00;99.90
23827;DHT22;12094;50.822;4.376;2023-03-24T08:59:58;12.10;99.90
23827;DHT22;12094;50.822;4.376;2023-03-24T09:02:30;12.10;99.90
23827;DHT22;12094;50.822;4.376;2023-03-24T09:04:58;12.20;99.90
23827;DHT22;12094;50.822;4.376;2023-03-24T09:07:27;12.30;99.90
23827;DHT22;12094;50.822;4.376;2023-03-24T09:09:54;12.50;99.90
23827;DHT22;12094;50.822;4.376;2023-03-24T09:12:27;12.60;99.90
23827;DHT22;12094;50.822;4.376;2023-03-24T09:14:57;12.40;99.90
23827;DHT22;12094;50.822;4.376;2023-03-24T09:17:28;12.50;99.90
23827;DHT22;12094;50.822;4.376;2023-03-24T09:19:56;12.60;99.90
23827;DHT22;12094;50.822;4.376;2023-03-24T09:22:24;12.70;99.90
23827;DHT22;12094;50.822;4.376;2023-03-24T09:25:09;12.80;99.90
23827;DHT22;12094;50.822;4.376;2023-03-24T09:27:36;12.80;99.90
23827;DHT22;12094;50.822;4.376;2023-03-24T09:30:06;12.50;99.90
23827;DHT22;12094;50.822;4.376;2023-03-24T09:32:36;12.50;99.90
23827;DHT22;12094;50.822;4.376;2023-03-24T09:35:07;12.60;99.90
23827;DHT22;12094;50.822;4.376;2023-03-24T09:37:36;12.70;99.90
23827;DHT22;12094;50.822;4.376;2023-03-24T09:40:20;12.50;99.90
23827;DHT22;12094;50.822;4.376;2023-03-24T09:45:52;12.80;99.90
23827;DHT22;12094;50.822;4.376;2023-03-24T09:48:46;13.00;99.90
23827;DHT22;12094;50.822;4.376;2023-03-24T09:51:27;13.30;99.90
23827;DHT22;12094;50.822;4.376;2023-03-24T09:54:13;13.40;99.90
23827;DHT22;12094;50.822;4.376;2023-03-24T09:56:45;12.80;99.90
23827;DHT22;12094;50.822;4.376;2023-03-24T10:01:54;12.90;99.90
23827;DHT22;12094;50.822;4.376;2023-03-24T10:04:24;13.20;99.90
23827;DHT22;12094;50.822;4.376;2023-03-24T10:07:06;13.30;99.90
23827;DHT22;12094;50.822;4.376;2023-03-24T10:09:35;13.00;99.90
23827;DHT22;12094;50.822;4.376;2023-03-24T10:12:19;13.00;99.90
23827;DHT22;12094;50.822;4.376;2023-03-24T10:15:05;13.20;99.90
23827;DHT22;12094;50.822;4.376;2023-03-24T10:20:45;13.20;99.90
23827;DHT22;12094;50.822;4.376;2023-03-24T10:23:26;12.90;99.90
23827;DHT22;12094;50.822;4.376;2023-03-24T10:26:29;12.80;99.90
23827;DHT22;12094;50.822;4.376;2023-03-24T10:29:28;13.00;99.90
23827;DHT22;12094;50.822;4.376;2023-03-24T10:32:00;13.20;99.90
23827;DHT22;12094;50.822;4.376;2023-03-24T10:34:31;13.00;99.90
23827;DHT22;12094;50.822;4.376;2023-03-24T10:40:11;13.20;99.90
23827;DHT22;12094;50.822;4.376;2023-03-24T10:42:41;13.40;99.90
23827;DHT22;12094;50.822;4.376;2023-03-24T10:45:37;13.40;99.90
23827;DHT22;12094;50.822;4.376;2023-03-24T10:48:05;13.40;99.90
23827;DHT22;12094;50.822;4.376;2023-03-24T10:50:34;13.40;99.90
23827;DHT22;12094;50.822;4.376;2023-03-24T10:53:16;13.50;99.90
23827;DHT22;12094;50.822;4.376;2023-03-24T10:55:46;13.50;99.90
23827;DHT22;12094;50.822;4.376;2023-03-24T10:58:36;13.50;99.90
23827;DHT22;12094;50.822;4.376;2023-03-24T11:03:48;13.60;99.90
23827;DHT22;12094;50.822;4.376;2023-03-24T11:06:20;13.80;99.90
23827;DHT22;12094;50.822;4.376;2023-03-24T11:09:07;14.20;99.90
23827;DHT22;12094;50.822;4.376;2023-03-24T11:11:35;14.00;99.90
23827;DHT22;12094;50.822;4.376;2023-03-24T11:14:02;14.00;99.90
23827;DHT22;12094;50.822;4.376;2023-03-24T11:16:35;14.10;99.90
23827;DHT22;12094;50.822;4.376;2023-03-24T11:19:06;14.00;99.90
23827;DHT22;12094;50.822;4.376;2023-03-24T11:21:46;14.20;99.90
23827;DHT22;12094;50.822;4.376;2023-03-24T11:24:18;14.00;99.90
23827;DHT22;12094;50.822;4.376;2023-03-24T11:26:58;13.90;99.90
23827;DHT22;12094;50.822;4.376;2023-03-24T11:29:32;13.80;99.90
23827;DHT22;12094;50.822;4.376;2023-03-24T11:32:02;13.80;99.90
23827;DHT22;12094;50.822;4.376;2023-03-24T11:34:37;13.90;99.90
23827;DHT22;12094;50.822;4.376;2023-03-24T11:37:18;14.50;99.90
23827;DHT22;12094;50.822;4.376;2023-03-24T11:43:19;15.50;99.90
23827;DHT22;12094;50.822;4.376;2023-03-24T11:45:42;15.60;99.90
23827;DHT22;12094;50.822;4.376;2023-03-24T11:48:29;15.40;99.90
23827;DHT22;12094;50.822;4.376;2023-03-24T11:50:58;15.20;99.90
23827;DHT22;12094;50.822;4.376;2023-03-24T11:53:56;15.90;99.90
23827;DHT22;12094;50.822;4.376;2023-03-24T11:56:26;16.60;99.90
23827;DHT22;12094;50.822;4.376;2023-03-24T12:01:55;17.00;99.90
23827;DHT22;12094;50.822;4.376;2023-03-24T12:10:32;15.40;99.90
23827;DHT22;12094;50.822;4.376;2023-03-24T12:13:15;15.20;99.90
23827;DHT22;12094;50.822;4.376;2023-03-24T12:26:51;14.20;99.90
23827;DHT22;12094;50.822;4.376;2023-03-24T12:29:50;14.20;99.90
23827;DHT22;12094;50.822;4.376;2023-03-24T12:35:59;15.40;99.90
23827;DHT22;12094;50.822;4.376;2023-03-24T12:38:56;15.80;99.90
23827;DHT22;12094;50.822;4.376;2023-03-24T12:44:35;15.60;99.90
23827;DHT22;12094;50.822;4.376;2023-03-24T12:55:55;15.00;99.90
23827;DHT22;12094;50.822;4.376;2023-03-24T12:58:37;14.70;99.90
23827;DHT22;12094;50.822;4.376;2023-03-24T13:01:27;14.50;99.90
23827;DHT22;12094;50.822;4.376;2023-03-24T13:04:19;14.20;99.90
23827;DHT22;12094;50.822;4.376;2023-03-24T13:07:10;14.00;99.90
23827;DHT22;12094;50.822;4.376;2023-03-24T13:10:06;14.10;99.90
23827;DHT22;12094;50.822;4.376;2023-03-24T13:12:59;14.10;99.90
23827;DHT22;12094;50.822;4.376;2023-03-24T13:15:35;13.70;99.90
23827;DHT22;12094;50.822;4.376;2023-03-24T13:21:12;12.80;99.90
23827;DHT22;12094;50.822;4.376;2023-03-24T13:24:09;12.60;99.90
23827;DHT22;12094;50.822;4.376;2023-03-24T13:27:14;12.40;99.90
23827;DHT22;12094;50.822;4.376;2023-03-24T13:30:17;12.00;99.90
23827;DHT22;12094;50.822;4.376;2023-03-24T13:32:54;11.90;99.90
23827;DHT22;12094;50.822;4.376;2023-03-24T13:38:45;12.90;99.90
23827;DHT22;12094;50.822;4.376;2023-03-24T13:41:18;13.60;99.90
23827;DHT22;12094;50.822;4.376;2023-03-24T13:44:00;13.80;99.90
23827;DHT22;12094;50.822;4.376;2023-03-24T13:46:35;13.70;99.90
23827;DHT22;12094;50.822;4.376;2023-03-24T13:49:11;13.80;99.90
23827;DHT22;12094;50.822;4.376;2023-03-24T13:51:46;13.90;99.90
23827;DHT22;12094;50.822;4.376;2023-03-24T13:54:34;14.00;99.90
23827;DHT22;12094;50.822;4.376;2023-03-24T13:57:14;14.10;99.90
23827;DHT22;12094;50.822;4.376;2023-03-24T14:15:39;14.40;99.90
23827;DHT22;12094;50.822;4.376;2023-03-24T14:21:10;14.20;99.90
23827;DHT22;12094;50.822;4.376;2023-03-24T14:23:44;14.30;99.90
23827;DHT22;12094;50.822;4.376;2023-03-24T14:28:56;14.30;99.90
23827;DHT22;12094;50.822;4.376;2023-03-24T14:31:34;14.30;99.90
23827;DHT22;12094;50.822;4.376;2023-03-24T14:34:15;14.40;99.90
23827;DHT22;12094;50.822;4.376;2023-03-24T14:37:16;14.20;99.90
23827;DHT22;12094;50.822;4.376;2023-03-24T14:39:46;14.10;99.90
23827;DHT22;12094;50.822;4.376;2023-03-24T14:42:27;14.10;99.90
23827;DHT22;12094;50.822;4.376;2023-03-24T14:45:52;14.20;99.90
23827;DHT22;12094;50.822;4.376;2023-03-24T14:55:12;13.50;99.90
23827;DHT22;12094;50.822;4.376;2023-03-24T14:57:45;13.60;99.90
23827;DHT22;12094;50.822;4.376;2023-03-24T15:00:34;13.50;99.90
23827;DHT22;12094;50.822;4.376;2023-03-24T15:03:29;13.40;99.90
23827;DHT22;12094;50.822;4.376;2023-03-24T15:06:46;13.50;99.90
23827;DHT22;12094;50.822;4.376;2023-03-24T15:09:30;13.70;99.90
23827;DHT22;12094;50.822;4.376;2023-03-24T15:12:06;13.60;99.90
23827;DHT22;12094;50.822;4.376;2023-03-24T15:14:38;13.80;99.90
23827;DHT22;12094;50.822;4.376;2023-03-24T15:17:34;13.80;99.90
23827;DHT22;12094;50.822;4.376;2023-03-24T15:20:06;14.10;99.90
23827;DHT22;12094;50.822;4.376;2023-03-24T15:23:21;14.00;99.90
23827;DHT22;12094;50.822;4.376;2023-03-24T15:25:54;14.00;99.90
23827;DHT22;12094;50.822;4.376;2023-03-24T15:28:29;14.00;99.90
23827;DHT22;12094;50.822;4.376;2023-03-24T15:30:57;14.00;99.90
23827;DHT22;12094;50.822;4.376;2023-03-24T15:34:04;14.00;99.90
23827;DHT22;12094;50.822;4.376;2023-03-24T15:36:57;14.10;99.90
23827;DHT22;12094;50.822;4.376;2023-03-24T15:39:38;14.00;99.90
23827;DHT22;12094;50.822;4.376;2023-03-24T15:42:23;13.90;99.90
23827;DHT22;12094;50.822;4.376;2023-03-24T15:48:50;13.80;99.90
23827;DHT22;12094;50.822;4.376;2023-03-24T15:51:18;13.80;99.90
23827;DHT22;12094;50.822;4.376;2023-03-24T15:53:55;13.80;99.90
23827;DHT22;12094;50.822;4.376;2023-03-24T15:56:29;13.60;99.90
23827;DHT22;12094;50.822;4.376;2023-03-24T15:59:12;13.50;99.90
23827;DHT22;12094;50.822;4.376;2023-03-24T16:01:47;13.40;99.90
23827;DHT22;12094;50.822;4.376;2023-03-24T16:04:17;13.40;99.90
23827;DHT22;12094;50.822;4.376;2023-03-24T16:06:55;13.30;99.90
23827;DHT22;12094;50.822;4.376;2023-03-24T16:09:54;13.20;99.90
23827;DHT22;12094;50.822;4.376;2023-03-24T16:12:22;13.10;99.90
23827;DHT22;12094;50.822;4.376;2023-03-24T16:14:49;13.20;99.90
23827;DHT22;12094;50.822;4.376;2023-03-24T16:17:20;13.40;99.90
23827;DHT22;12094;50.822;4.376;2023-03-24T16:19:56;13.50;99.90
23827;DHT22;12094;50.822;4.376;2023-03-24T16:22:35;13.60;99.90
23827;DHT22;12094;50.822;4.376;2023-03-24T16:25:02;13.50;99.90
23827;DHT22;12094;50.822;4.376;2023-03-24T16:27:38;13.60;99.90
23827;DHT22;12094;50.822;4.376;2023-03-24T16:30:20;13.40;99.90
23827;DHT22;12094;50.822;4.376;2023-03-24T16:33:14;13.40;99.90
23827;DHT22;12094;50.822;4.376;2023-03-24T16:36:20;13.30;99.90
23827;DHT22;12094;50.822;4.376;2023-03-24T16:38:59;13.30;99.90
23827;DHT22;12094;50.822;4.376;2023-03-24T16:42:08;13.40;99.90
23827;DHT22;12094;50.822;4.376;2023-03-24T16:44:36;13.40;99.90
23827;DHT22;12094;50.822;4.376;2023-03-24T16:47:03;13.30;99.90
23827;DHT22;12094;50.822;4.376;2023-03-24T16:49:36;13.40;99.90
23827;DHT22;12094;50.822;4.376;2023-03-24T16:52:09;13.30;99.90
23827;DHT22;12094;50.822;4.376;2023-03-24T16:54:38;13.00;99.90
23827;DHT22;12094;50.822;4.376;2023-03-24T16:57:07;12.90;99.90
23827;DHT22;12094;50.822;4.376;2023-03-24T16:59:59;12.60;99.90
23827;DHT22;12094;50.822;4.376;2023-03-24T17:02:28;12.40;99.90
23827;DHT22;12094;50.822;4.376;2023-03-24T17:08:46;12.10;99.90
23827;DHT22;12094;50.822;4.376;2023-03-24T17:11:40;11.70;99.90
23827;DHT22;12094;50.822;4.376;2023-03-24T17:14:47;11.40;99.90
23827;DHT22;12094;50.822;4.376;2023-03-24T17:18:08;10.90;99.90
23827;DHT22;12094;50.822;4.376;2023-03-24T17:20:56;10.60;99.90
23827;DHT22;12094;50.822;4.376;2023-03-24T17:23:53;10.40;99.90
23827;DHT22;12094;50.822;4.376;2023-03-24T17:26:29;10.30;99.90
23827;DHT22;12094;50.822;4.376;2023-03-24T17:29:12;10.20;99.90
23827;DHT22;12094;50.822;4.376;2023-03-24T17:32:15;10.20;99.90
23827;DHT22;12094;50.822;4.376;2023-03-24T17:34:57;10.30;99.90
23827;DHT22;12094;50.822;4.376;2023-03-24T17:37:48;10.30;99.90
23827;DHT22;12094;50.822;4.376;2023-03-24T17:40:19;10.30;99.90
23827;DHT22;12094;50.822;4.376;2023-03-24T17:42:47;10.30;99.90
23827;DHT22;12094;50.822;4.376;2023-03-24T17:45:21;10.30;99.90
23827;DHT22;12094;50.822;4.376;2023-03-24T17:47:49;10.40;99.90
23827;DHT22;12094;50.822;4.376;2023-03-24T17:50:47;10.40;99.90
23827;DHT22;12094;50.822;4.376;2023-03-24T17:53:19;10.50;99.90
23827;DHT22;12094;50.822;4.376;2023-03-24T17:56:00;10.50;99.90
23827;DHT22;12094;50.822;4.376;2023-03-24T17:58:34;10.50;99.90
23827;DHT22;12094;50.822;4.376;2023-03-24T18:01:30;10.60;99.90
23827;DHT22;12094;50.822;4.376;2023-03-24T18:04:03;10.50;99.90
23827;DHT22;12094;50.822;4.376;2023-03-24T18:06:31;10.60;99.90
23827;DHT22;12094;50.822;4.376;2023-03-24T18:09:02;10.50;99.90
23827;DHT22;12094;50.822;4.376;2023-03-24T18:11:31;10.50;99.90
23827;DHT22;12094;50.822;4.376;2023-03-24T19:00:10;10.20;99.90
23827;DHT22;12094;50.822;4.376;2023-03-24T19:02:40;10.10;99.90
23827;DHT22;12094;50.822;4.376;2023-03-24T19:05:11;10.10;99.90
23827;DHT22;12094;50.822;4.376;2023-03-24T19:07:41;10.10;99.90
23827;DHT22;12094;50.822;4.376;2023-03-24T19:10:08;10.20;99.90
23827;DHT22;12094;50.822;4.376;2023-03-24T19:12:35;10.20;99.90
23827;DHT22;12094;50.822;4.376;2023-03-24T19:15:03;10.20;99.90
23827;DHT22;12094;50.822;4.376;2023-03-24T19:17:31;10.20;99.90
23827;DHT22;12094;50.822;4.376;2023-03-24T19:19:59;10.30;99.90
23827;DHT22;12094;50.822;4.376;2023-03-24T19:22:29;10.30;99.90
23827;DHT22;12094;50.822;4.376;2023-03-24T19:24:57;10.30;99.90
23827;DHT22;12094;50.822;4.376;2023-03-24T19:27:24;10.30;99.90
23827;DHT22;12094;50.822;4.376;2023-03-24T19:29:55;10.20;99.90
23827;DHT22;12094;50.822;4.376;2023-03-24T19:32:23;10.20;99.90
23827;DHT22;12094;50.822;4.376;2023-03-24T19:34:52;10.30;99.90
23827;DHT22;12094;50.822;4.376;2023-03-24T19:37:19;10.20;99.90
23827;DHT22;12094;50.822;4.376;2023-03-24T19:39:48;10.30;99.90
23827;DHT22;12094;50.822;4.376;2023-03-24T19:42:18;10.30;99.90
23827;DHT22;12094;50.822;4.376;2023-03-24T19:44:47;10.20;99.90
23827;DHT22;12094;50.822;4.376;2023-03-24T19:47:14;10.20;99.90
23827;DHT22;12094;50.822;4.376;2023-03-24T19:49:43;10.30;99.90